createdAt,value
2022-09-02T00:01:27.613Z,18.44
2022-09-02T00:04:00.149Z,17.80
2022-09-02T00:06:27.481Z,17.12
2022-09-02T00:08:55.169Z,17.76
2022-09-02T00:11:26.036Z,17.70
2022-09-02T00:13:57.293Z,18.76
2022-09-02T00:16:25.227Z,17.77
2022-09-02T00:18:56.475Z,18.88
2022-09-02T00:21:29.115Z,17.57
2022-09-02T00:23:56.173Z,18.03
2022-09-02T00:26:26.118Z,18.93
2022-09-02T00:28:55.861Z,18.96
2022-09-02T00:31:25.020Z,18.73
2022-09-02T00:33:54.581Z,18.73
2022-09-02T00:36:21.861Z,18.21
2022-09-02T00:38:48.911Z,19.03
2022-09-02T00:41:15.700Z,17.68
2022-09-02T00:43:53.713Z,17.83
2022-09-02T00:46:25.648Z,18.97
2022-09-02T00:49:03.794Z,18.96
2022-09-02T00:51:40.979Z,18.21
2022-09-02T00:54:08.193Z,18.90
2022-09-02T00:56:37.828Z,18.86
2022-09-02T00:59:09.722Z,18.56
2022-09-02T01:01:39.344Z,18.84
2022-09-02T01:04:06.718Z,17.37
2022-09-02T01:06:33.724Z,18.83
2022-09-02T01:09:09.412Z,17.32
2022-09-02T01:11:53.538Z,18.46
2022-09-02T01:14:20.544Z,18.40
2022-09-02T01:16:53.916Z,18.40
2022-09-02T01:19:29.471Z,18.73
2022-09-02T01:22:00.735Z,18.76
2022-09-02T01:24:33.205Z,17.72
2022-09-02T01:27:00.373Z,18.26
2022-09-02T01:29:29.115Z,18.32
2022-09-02T01:31:56.402Z,18.19
2022-09-02T01:34:23.450Z,18.72
2022-09-02T01:36:52.416Z,17.98
2022-09-02T01:39:24.329Z,16.90
2022-09-02T01:42:00.756Z,17.19
2022-09-02T01:44:28.653Z,17.84
2022-09-02T01:46:58.344Z,17.56
2022-09-02T01:49:27.717Z,17.37
2022-09-02T01:51:57.804Z,17.06
2022-09-02T01:54:24.521Z,17.32
2022-09-02T01:56:51.902Z,18.17
2022-09-02T01:59:21.256Z,17.44
2022-09-02T02:01:50.536Z,18.76
2022-09-02T02:04:19.822Z,18.79
2022-09-02T02:06:52.491Z,18.49
2022-09-02T02:09:21.626Z,18.49
2022-09-02T02:11:52.909Z,18.86
2022-09-02T02:14:24.791Z,18.68
2022-09-02T02:16:52.907Z,18.06
2022-09-02T02:19:22.329Z,17.65
2022-09-02T02:21:49.186Z,18.88
2022-09-02T02:24:16.096Z,18.34
2022-09-02T02:26:45.354Z,18.23
2022-09-02T02:29:18.155Z,18.91
2022-09-02T02:31:45.461Z,18.85
2022-09-02T02:34:13.063Z,18.84
2022-09-02T02:36:41.056Z,18.11
2022-09-02T02:39:09.681Z,18.83
2022-09-02T02:41:38.116Z,17.46
2022-09-02T02:44:08.303Z,18.15
2022-09-02T02:46:40.175Z,18.34
2022-09-02T02:49:07.414Z,18.77
2022-09-02T02:51:37.647Z,18.77
2022-09-02T02:54:05.799Z,17.77
2022-09-02T02:56:35.750Z,17.24
2022-09-02T02:59:03.722Z,17.91
2022-09-02T03:01:34.763Z,18.21
2022-09-02T03:04:03.504Z,17.34
2022-09-02T03:06:30.384Z,18.40
2022-09-02T03:09:04.880Z,17.90
2022-09-02T03:11:32.053Z,17.50
2022-09-02T03:14:01.230Z,18.54
2022-09-02T03:16:28.587Z,18.15
2022-09-02T03:18:58.217Z,18.21
2022-09-02T03:21:27.132Z,17.33
2022-09-02T03:23:54.027Z,18.40
2022-09-02T03:26:24.707Z,17.32
2022-09-02T03:28:56.823Z,18.28
2022-09-02T03:31:25.401Z,16.63
2022-09-02T03:33:53.348Z,18.19
2022-09-02T03:36:35.241Z,16.55
2022-09-02T03:39:05.759Z,17.94
2022-09-02T03:41:41.363Z,18.17
2022-09-02T03:44:10.642Z,18.16
2022-09-02T03:46:39.207Z,17.35
2022-09-02T03:49:06.491Z,17.08
2022-09-02T03:51:36.035Z,17.95
2022-09-02T03:54:04.089Z,17.85
2022-09-02T03:56:31.248Z,17.81
2022-09-02T03:59:05.331Z,16.21
2022-09-02T04:01:35.111Z,17.32
2022-09-02T04:04:05.776Z,17.33
2022-09-02T04:06:36.552Z,17.46
2022-09-02T04:09:04.844Z,17.84
2022-09-02T04:11:32.793Z,17.84
2022-09-02T04:14:00.535Z,16.48
2022-09-02T04:16:29.424Z,17.79
2022-09-02T04:19:04.103Z,16.23
2022-09-02T04:21:33.592Z,17.78
2022-09-02T04:24:06.238Z,17.50
2022-09-02T04:26:33.573Z,17.78
2022-09-02T04:29:00.915Z,17.79
2022-09-02T04:31:32.503Z,17.84
2022-09-02T04:34:00.454Z,17.65
2022-09-02T04:36:30.821Z,15.74
2022-09-02T04:39:06.863Z,17.98
2022-09-02T04:41:39.533Z,18.06
2022-09-02T04:44:14.013Z,18.07
2022-09-02T04:46:44.406Z,18.09
2022-09-02T04:49:15.765Z,18.10
2022-09-02T04:51:44.263Z,18.10
2022-09-02T04:54:11.342Z,18.00
2022-09-02T04:56:41.898Z,18.01
2022-09-02T04:59:09.298Z,18.05
2022-09-02T05:01:42.226Z,16.64
2022-09-02T05:04:14.837Z,18.09
2022-09-02T05:06:47.093Z,17.28
2022-09-02T05:09:21.377Z,17.84
2022-09-02T05:11:57.285Z,17.16
2022-09-02T05:14:27.448Z,17.48
2022-09-02T05:16:57.011Z,18.03
2022-09-02T05:19:24.415Z,17.82
2022-09-02T05:21:57.564Z,18.41
2022-09-02T05:24:31.742Z,18.46
2022-09-02T05:27:05.196Z,18.33
2022-09-02T05:29:34.484Z,16.64
2022-09-02T05:32:01.592Z,18.02
2022-09-02T05:34:28.507Z,18.11
2022-09-02T05:36:58.883Z,17.75
2022-09-02T05:39:32.498Z,17.48
2022-09-02T05:42:05.395Z,18.86
2022-09-02T05:44:36.048Z,18.90
2022-09-02T05:47:04.509Z,18.39
2022-09-02T05:49:31.596Z,17.71
2022-09-02T05:52:10.512Z,18.96
2022-09-02T05:54:46.416Z,18.29
2022-09-02T05:57:16.990Z,18.91
2022-09-02T05:59:59.236Z,19.02
2022-09-02T06:02:41.142Z,19.12
2022-09-02T06:05:12.163Z,19.18
2022-09-02T06:07:43.449Z,19.22
2022-09-02T06:10:17.379Z,19.08
2022-09-02T06:12:45.009Z,19.40
2022-09-02T06:15:15.183Z,19.38
2022-09-02T06:17:43.127Z,19.18
2022-09-02T06:20:12.000Z,19.59
2022-09-02T06:22:41.859Z,19.51
2022-09-02T06:25:09.808Z,19.70
2022-09-02T06:27:38.258Z,18.81
2022-09-02T06:30:08.508Z,19.79
2022-09-02T06:32:37.734Z,19.98
2022-09-02T06:35:10.761Z,19.98
2022-09-02T06:37:41.472Z,19.71
2022-09-02T06:40:14.118Z,19.79
2022-09-02T06:42:48.272Z,19.85
2022-09-02T06:45:32.612Z,20.25
2022-09-02T06:48:07.451Z,20.39
2022-09-02T06:50:40.356Z,20.33
2022-09-02T06:53:08.975Z,20.41
2022-09-02T06:55:44.623Z,19.54
2022-09-02T06:58:12.751Z,20.42
2022-09-02T07:00:41.225Z,20.00
2022-09-02T07:03:28.208Z,20.50
2022-09-02T07:06:04.231Z,19.83
2022-09-02T07:08:31.547Z,19.75
2022-09-02T07:10:58.795Z,19.81
2022-09-02T07:13:33.430Z,20.44
2022-09-02T07:16:01.489Z,20.58
2022-09-02T07:18:28.811Z,20.64
2022-09-02T07:20:56.837Z,20.60
2022-09-02T07:23:24.342Z,20.67
2022-09-02T07:25:51.773Z,20.76
2022-09-02T07:28:22.254Z,20.44
2022-09-02T07:30:49.367Z,20.70
2022-09-02T07:33:22.024Z,20.55
2022-09-02T07:35:51.228Z,20.60
2022-09-02T07:38:19.243Z,20.63
2022-09-02T07:40:47.142Z,20.55
2022-09-02T07:43:16.043Z,20.49
2022-09-02T07:45:46.549Z,20.50
2022-09-02T07:48:15.908Z,20.46
2022-09-02T07:50:47.433Z,20.34
2022-09-02T07:53:19.383Z,19.45
2022-09-02T07:55:49.090Z,20.25
2022-09-02T07:58:22.866Z,20.26
2022-09-02T08:00:52.894Z,20.41
2022-09-02T08:03:20.102Z,20.06
2022-09-02T08:05:52.464Z,19.92
2022-09-02T08:08:26.280Z,20.53
2022-09-02T08:10:54.286Z,20.21
2022-09-02T08:13:22.083Z,20.05
2022-09-02T08:15:54.553Z,20.67
2022-09-02T08:18:22.683Z,20.77
2022-09-02T08:20:52.511Z,20.79
2022-09-02T08:23:35.499Z,20.89
2022-09-02T08:26:08.575Z,21.05
2022-09-02T08:28:35.631Z,21.12
2022-09-02T08:31:08.496Z,20.43
2022-09-02T08:33:35.495Z,21.25
2022-09-02T08:36:08.413Z,21.07
2022-09-02T08:38:35.771Z,20.27
2022-09-02T08:41:04.785Z,21.29
2022-09-02T08:43:40.043Z,20.98
2022-09-02T08:46:12.207Z,21.35
2022-09-02T08:48:48.032Z,21.76
2022-09-02T08:51:27.373Z,21.25
2022-09-02T08:54:05.493Z,21.72
2022-09-02T08:56:35.347Z,21.22
2022-09-02T08:59:06.349Z,21.58
2022-09-02T09:01:50.376Z,21.81
2022-09-02T09:04:23.359Z,21.80
2022-09-02T09:07:01.846Z,21.89
2022-09-02T09:09:51.005Z,22.04
2022-09-02T09:12:32.944Z,22.07
2022-09-02T09:15:24.850Z,22.02
2022-09-02T09:18:03.129Z,21.46
2022-09-02T09:20:34.783Z,22.09
2022-09-02T09:23:09.722Z,22.12
2022-09-02T09:25:39.144Z,22.02
2022-09-02T09:28:05.903Z,22.31
2022-09-02T09:30:35.399Z,22.23
2022-09-02T09:33:06.005Z,22.03
2022-09-02T09:35:51.429Z,22.37
2022-09-02T09:38:39.645Z,22.36
2022-09-02T09:41:29.173Z,22.34
2022-09-02T09:44:01.386Z,22.66
2022-09-02T09:46:33.687Z,22.57
2022-09-02T09:49:01.454Z,23.17
2022-09-02T09:51:28.404Z,22.60
2022-09-02T09:54:18.682Z,23.18
2022-09-02T09:56:45.648Z,23.16
2022-09-02T09:59:37.240Z,23.20
2022-09-02T10:02:04.319Z,23.67
2022-09-02T10:04:42.720Z,23.91
2022-09-02T10:07:11.613Z,24.14
2022-09-02T10:09:38.819Z,24.37
2022-09-02T10:12:11.368Z,24.63
2022-09-02T10:14:46.127Z,24.54
2022-09-02T10:17:29.781Z,23.85
2022-09-02T10:20:04.667Z,25.81
2022-09-02T10:23:10.979Z,25.76
2022-09-02T10:26:04.559Z,26.21
2022-09-02T10:28:51.912Z,25.58
2022-09-02T10:31:34.480Z,26.27
2022-09-02T10:34:04.180Z,26.76
2022-09-02T10:36:48.847Z,26.15
2022-09-02T10:39:41.241Z,26.16
2022-09-02T10:42:37.150Z,26.58
2022-09-02T10:45:12.760Z,26.43
2022-09-02T10:47:40.390Z,26.78
2022-09-02T10:50:23.968Z,26.73
2022-09-02T10:53:12.561Z,26.98
2022-09-02T10:55:50.757Z,26.77
2022-09-02T10:58:30.025Z,26.78
2022-09-02T11:00:57.683Z,26.55
2022-09-02T11:03:44.091Z,26.64
2022-09-02T11:06:21.631Z,27.36
2022-09-02T11:08:54.701Z,26.85
2022-09-02T11:11:29.866Z,27.43
2022-09-02T11:14:10.464Z,26.61
2022-09-02T11:17:04.669Z,27.28
2022-09-02T11:19:46.537Z,26.97
2022-09-02T11:22:22.140Z,26.56
2022-09-02T11:25:04.139Z,27.18
2022-09-02T11:27:42.473Z,27.31
2022-09-02T11:30:21.644Z,27.23
2022-09-02T11:33:02.293Z,27.07
2022-09-02T11:35:34.013Z,27.16
2022-09-02T11:38:06.558Z,25.09
2022-09-02T11:43:58.597Z,27.80
2022-09-02T11:46:46.410Z,28.23
2022-09-02T11:49:34.625Z,28.61
2022-09-02T11:52:35.249Z,29.27
2022-09-02T11:55:09.388Z,29.89
2022-09-02T11:57:38.741Z,29.85
2022-09-02T12:00:08.512Z,30.58
2022-09-02T12:02:52.336Z,30.09
2022-09-02T12:05:30.007Z,31.77
2022-09-02T12:08:03.160Z,31.59
2022-09-02T12:10:39.905Z,31.24
2022-09-02T12:13:09.734Z,31.34
2022-09-02T12:15:38.577Z,30.80
2022-09-02T12:18:11.244Z,31.27
2022-09-02T12:20:41.691Z,31.61
2022-09-02T12:23:11.463Z,31.40
2022-09-02T12:25:48.545Z,32.34
2022-09-02T12:28:27.416Z,32.75
2022-09-02T12:31:02.855Z,32.86
2022-09-02T12:33:40.411Z,32.75
2022-09-02T12:36:42.324Z,32.25
2022-09-02T12:39:33.223Z,32.38
2022-09-02T12:42:11.374Z,31.87
2022-09-02T12:45:04.734Z,31.87
2022-09-02T12:47:56.312Z,32.61
2022-09-02T12:50:29.823Z,32.16
2022-09-02T12:53:22.516Z,31.72
2022-09-02T12:56:04.158Z,31.88
2022-09-02T12:58:39.225Z,32.13
2022-09-02T13:01:05.878Z,32.30
2022-09-02T13:03:56.971Z,32.48
2022-09-02T13:06:38.741Z,32.46
2022-09-02T13:09:42.929Z,32.66
2022-09-02T13:12:24.929Z,32.75
2022-09-02T13:15:04.152Z,32.56
2022-09-02T13:18:05.300Z,32.21
2022-09-02T13:20:43.141Z,32.10
2022-09-02T13:23:42.432Z,32.62
2022-09-02T13:26:49.671Z,34.35
2022-09-02T13:30:06.553Z,34.64
2022-09-02T13:32:34.500Z,35.83
2022-09-02T13:35:02.869Z,36.45
2022-09-02T13:37:39.670Z,36.31
2022-09-02T13:40:18.083Z,35.40
2022-09-02T13:42:59.175Z,34.15
2022-09-02T13:45:38.350Z,34.56
2022-09-02T13:48:17.767Z,34.35
2022-09-02T13:50:50.162Z,33.80
2022-09-02T13:54:18.849Z,31.83
2022-09-02T13:56:30.808Z,31.97
2022-09-02T13:58:57.623Z,31.97
2022-09-02T14:01:33.152Z,30.21
2022-09-02T14:04:06.471Z,30.67
2022-09-02T14:06:39.838Z,30.67
2022-09-02T14:09:19.419Z,30.16
2022-09-02T14:11:48.213Z,30.80
2022-09-02T14:14:20.008Z,31.23
2022-09-02T14:16:47.333Z,31.24
2022-09-02T14:19:16.954Z,31.73
2022-09-02T14:21:47.658Z,32.16
2022-09-02T14:24:19.197Z,32.56
2022-09-02T14:26:54.040Z,33.47
2022-09-02T14:29:23.983Z,33.73
2022-09-02T14:32:06.504Z,33.22
2022-09-02T14:34:41.834Z,32.59
2022-09-02T14:37:25.754Z,32.19
2022-09-02T14:40:13.309Z,31.32
2022-09-02T14:42:47.810Z,31.30
2022-09-02T14:45:14.988Z,29.70
2022-09-02T14:47:44.478Z,31.38
2022-09-02T14:50:20.413Z,31.40
2022-09-02T14:52:51.472Z,30.93
2022-09-02T14:55:43.872Z,33.19
2022-09-02T14:58:11.646Z,34.82
2022-09-02T15:00:41.236Z,34.96
2022-09-02T15:03:15.084Z,33.09
2022-09-02T15:05:42.811Z,33.76
2022-09-02T15:08:09.870Z,33.10
2022-09-02T15:10:39.198Z,32.50
2022-09-02T15:13:16.486Z,31.40
2022-09-02T15:15:46.088Z,31.72
2022-09-02T15:18:17.092Z,31.30
2022-09-02T15:20:44.174Z,31.12
2022-09-02T15:23:15.764Z,31.31
2022-09-02T15:25:43.250Z,31.63
2022-09-02T15:28:13.792Z,31.86
2022-09-02T15:30:43.417Z,30.78
2022-09-02T15:33:16.721Z,29.73
2022-09-02T15:35:47.518Z,30.13
2022-09-02T15:38:14.695Z,30.02
2022-09-02T15:40:42.148Z,29.29
2022-09-02T15:43:09.292Z,28.50
2022-09-02T15:45:47.606Z,27.76
2022-09-02T15:48:15.405Z,28.53
2022-09-02T15:50:47.036Z,27.97
2022-09-02T15:53:15.623Z,27.44
2022-09-02T15:55:46.803Z,27.89
2022-09-02T15:58:14.502Z,27.31
2022-09-02T16:00:46.167Z,26.64
2022-09-02T16:03:17.188Z,26.69
2022-09-02T16:05:46.919Z,26.61
2022-09-02T16:08:19.083Z,25.29
2022-09-02T16:10:49.855Z,26.22
2022-09-02T16:13:19.143Z,25.71
2022-09-02T16:15:45.926Z,25.70
2022-09-02T16:18:12.700Z,25.55
2022-09-02T16:20:39.426Z,25.03
2022-09-02T16:23:06.584Z,25.09
2022-09-02T16:25:33.484Z,24.61
2022-09-02T16:28:03.440Z,24.49
2022-09-02T16:30:32.702Z,23.77
2022-09-02T16:33:02.185Z,23.02
2022-09-02T16:35:31.259Z,22.39
2022-09-02T16:37:58.455Z,23.51
2022-09-02T16:40:25.650Z,23.19
2022-09-02T16:42:52.835Z,23.11
2022-09-02T16:45:20.199Z,22.31
2022-09-02T16:47:49.390Z,22.94
2022-09-02T16:50:16.347Z,22.13
2022-09-02T16:52:45.266Z,22.45
2022-09-02T16:55:17.761Z,22.79
2022-09-02T16:57:48.134Z,22.62
2022-09-02T17:00:15.915Z,22.38
2022-09-02T17:02:45.048Z,21.54
2022-09-02T17:05:14.404Z,22.34
2022-09-02T17:07:42.211Z,21.62
2022-09-02T17:10:09.505Z,21.93
2022-09-02T17:12:39.656Z,22.00
2022-09-02T17:15:10.348Z,21.94
2022-09-02T17:17:40.123Z,21.24
2022-09-02T17:20:08.648Z,21.17
2022-09-02T17:22:38.104Z,21.83
2022-09-02T17:25:08.380Z,21.22
2022-09-02T17:27:37.837Z,21.56
2022-09-02T17:30:06.439Z,21.52
2022-09-02T17:32:43.670Z,21.74
2022-09-02T17:35:15.893Z,21.09
2022-09-02T17:37:43.378Z,21.66
2022-09-02T17:40:30.279Z,21.53
2022-09-02T17:43:02.891Z,21.23
2022-09-02T17:45:30.333Z,21.47
2022-09-02T17:47:59.320Z,21.31
2022-09-02T17:50:36.089Z,20.39
2022-09-02T17:53:02.876Z,21.41
2022-09-02T17:55:32.394Z,21.35
2022-09-02T17:58:08.208Z,21.11
2022-09-02T18:00:46.699Z,21.25
2022-09-02T18:03:35.072Z,21.35
2022-09-02T18:06:12.516Z,21.32
2022-09-02T18:08:52.685Z,21.31
2022-09-02T18:11:22.617Z,21.25
2022-09-02T18:14:14.571Z,21.22
2022-09-02T18:16:51.783Z,21.21
2022-09-02T18:19:29.772Z,21.19
2022-09-02T18:22:46.419Z,20.84
2022-09-02T18:25:50.779Z,21.12
2022-09-02T18:28:36.109Z,21.10
2022-09-02T18:31:13.616Z,21.10
2022-09-02T18:33:40.269Z,21.08
2022-09-02T18:36:18.846Z,20.67
2022-09-02T18:39:09.446Z,21.06
2022-09-02T18:41:55.354Z,21.04
2022-09-02T18:45:02.005Z,19.90
2022-09-02T18:47:34.673Z,20.17
2022-09-02T18:50:05.845Z,20.77
2022-09-02T18:52:39.708Z,20.13
2022-09-02T18:55:12.814Z,20.84
2022-09-02T18:58:00.136Z,20.66
2022-09-02T19:00:34.226Z,19.85
2022-09-02T19:03:06.566Z,20.76
2022-09-02T19:05:38.350Z,20.16
2022-09-02T19:08:27.219Z,20.59
2022-09-02T19:11:01.035Z,20.43
2022-09-02T19:13:37.627Z,20.37
2022-09-02T19:16:05.061Z,20.73
2022-09-02T19:18:32.574Z,20.45
2022-09-02T19:20:59.598Z,20.78
2022-09-02T19:23:27.517Z,20.47
2022-09-02T19:25:54.542Z,19.95
2022-09-02T19:28:27.254Z,19.77
2022-09-02T19:30:57.907Z,20.12
2022-09-02T19:33:29.542Z,20.50
2022-09-02T19:36:00.887Z,20.19
2022-09-02T19:38:30.909Z,20.28
2022-09-02T19:40:58.778Z,20.51
2022-09-02T19:43:26.028Z,20.44
2022-09-02T19:45:56.069Z,19.32
2022-09-02T19:48:42.877Z,20.34
2022-09-02T19:51:13.675Z,20.15
2022-09-02T19:53:40.971Z,19.83
2022-09-02T19:56:07.893Z,20.21
2022-09-02T19:58:35.824Z,19.38
2022-09-02T20:01:05.692Z,20.03
2022-09-02T20:03:38.931Z,20.12
2022-09-02T20:06:06.972Z,19.81
2022-09-02T20:08:34.737Z,19.46
2022-09-02T20:11:03.550Z,19.99
2022-09-02T20:13:38.588Z,19.35
2022-09-02T20:16:20.258Z,19.95
2022-09-02T20:18:51.182Z,18.92
2022-09-02T20:21:32.540Z,19.89
2022-09-02T20:24:08.096Z,19.34
2022-09-02T20:26:52.878Z,19.84
2022-09-02T20:29:46.150Z,19.82
2022-09-02T20:32:34.411Z,19.74
2022-09-02T20:35:12.678Z,19.70
2022-09-02T20:37:57.095Z,19.67
2022-09-02T20:40:35.666Z,19.62
2022-09-02T20:43:15.251Z,19.57
2022-09-02T20:46:20.820Z,19.60
2022-09-02T20:49:01.446Z,19.60
2022-09-02T20:51:39.149Z,19.56
2022-09-02T20:54:08.851Z,19.51
2022-09-02T20:56:41.469Z,19.52
2022-09-02T20:59:17.440Z,19.49
2022-09-02T21:01:47.930Z,19.03
2022-09-02T21:04:44.653Z,18.02
2022-09-02T21:07:16.156Z,19.04
2022-09-02T21:09:49.076Z,18.97
2022-09-02T21:12:21.168Z,18.96
2022-09-02T21:14:58.646Z,18.28
2022-09-02T21:17:36.686Z,18.86
2022-09-02T21:20:10.826Z,18.40
2022-09-02T21:22:46.819Z,18.46
2022-09-02T21:25:29.851Z,18.73
2022-09-02T21:28:09.311Z,19.06
2022-09-02T21:30:41.660Z,19.05
2022-09-02T21:33:11.876Z,19.02
2022-09-02T21:35:51.535Z,18.86
2022-09-02T21:38:41.441Z,18.28
2022-09-02T21:41:40.990Z,18.96
2022-09-02T21:44:34.059Z,18.50
2022-09-02T21:47:01.744Z,18.94
2022-09-02T21:49:45.360Z,18.91
2022-09-02T21:52:30.807Z,18.88
2022-09-02T21:55:03.524Z,18.85
2022-09-02T21:57:41.354Z,18.83
2022-09-02T22:00:12.908Z,18.62
2022-09-02T22:03:21.876Z,18.75
2022-09-02T22:05:54.688Z,18.22
2022-09-02T22:08:31.591Z,18.63
2022-09-02T22:11:09.320Z,18.57
2022-09-02T22:13:41.931Z,18.53
2022-09-02T22:16:28.238Z,18.49
2022-09-02T22:19:01.796Z,18.44
2022-09-02T22:21:48.556Z,18.39
2022-09-02T22:24:19.397Z,18.34
2022-09-02T22:26:52.094Z,18.13
2022-09-02T22:29:36.519Z,17.64
2022-09-02T22:32:09.153Z,18.07
2022-09-02T22:34:43.658Z,17.17
2022-09-02T22:37:18.881Z,18.10
2022-09-02T22:39:51.376Z,17.89
2022-09-02T22:42:23.512Z,18.02
2022-09-02T22:45:37.142Z,17.87
2022-09-02T22:48:30.139Z,17.27
2022-09-02T22:51:24.912Z,16.34
2022-09-02T22:53:54.235Z,17.34
2022-09-02T22:56:35.644Z,17.90
2022-09-02T22:59:30.837Z,17.86
2022-09-02T23:02:22.983Z,17.84
2022-09-02T23:04:58.815Z,17.81
2022-09-02T23:07:25.624Z,17.79
2022-09-02T23:09:59.157Z,17.35
2022-09-02T23:12:32.299Z,17.76
2022-09-02T23:15:13.000Z,16.89
2022-09-02T23:18:01.560Z,17.75
2022-09-02T23:21:00.243Z,17.42
2022-09-02T23:23:42.034Z,17.67
2022-09-02T23:26:36.644Z,17.64
2022-09-02T23:29:19.807Z,17.41
2022-09-02T23:32:01.738Z,17.53
2022-09-02T23:34:28.470Z,17.49
2022-09-02T23:37:30.660Z,17.42
2022-09-02T23:40:23.587Z,17.35
2022-09-02T23:42:52.784Z,17.29
2022-09-02T23:45:19.994Z,17.26
2022-09-02T23:48:28.768Z,17.15
2022-09-02T23:51:13.856Z,17.13
2022-09-02T23:54:14.572Z,17.10
2022-09-02T23:57:03.364Z,17.09
2022-09-02T23:59:32.536Z,17.09
